Time;durP1;ratioP1;P1;durP2;ratioP2;P2;SDS_P1;SDS_P2;PMS_P1;PMS_P2;Temp;Humidity;BMP_temperature;BMP_pressure;BME280_temperature;BME280_humidity;BME280_pressure;Samples;Min_cycle;Max_cycle;Signal;HPM_P1;HPM_P2
2023/03/21 00:02:26;;;;;;;11.77;10.57;;;9.00;63.60;;;;;;6262075;28;20245;-81
2023/03/21 00:05:29;;;;;;;11.47;10.50;;;9.00;64.30;;;;;;6284907;28;20234;-80
2023/03/21 00:08:33;;;;;;;13.00;11.90;;;8.90;64.40;;;;;;6250247;28;20359;-80
2023/03/21 00:11:36;;;;;;;10.47;9.57;;;8.90;64.60;;;;;;6224473;28;20245;-80
2023/03/21 00:14:39;;;;;;;12.07;10.97;;;8.80;64.80;;;;;;6262373;28;20732;-80
2023/03/21 00:17:43;;;;;;;10.70;9.80;;;8.80;64.90;;;;;;6256800;28;20243;-80
2023/03/21 00:20:57;;;;;;;11.77;10.63;;;8.80;65.10;;;;;;6249714;28;20710;-80
2023/03/21 00:24:21;;;;;;;10.60;9.57;;;8.80;65.00;;;;;;6242276;28;20233;-80
2023/03/21 00:27:24;;;;;;;10.20;9.30;;;8.70;64.70;;;;;;6253017;28;20234;-82
2023/03/21 00:30:47;;;;;;;10.20;9.20;;;8.80;64.40;;;;;;6272488;28;20748;-81
2023/03/21 00:33:52;;;;;;;10.87;10.03;;;8.80;64.50;;;;;;6272878;28;20233;-79
2023/03/21 00:36:55;;;;;;;10.80;9.97;;;8.80;64.70;;;;;;6265796;28;20231;-81
2023/03/21 00:39:58;;;;;;;12.07;10.77;;;8.80;64.70;;;;;;6262605;28;20439;-80
2023/03/21 00:43:01;;;;;;;11.63;10.73;;;8.80;64.80;;;;;;6255777;28;20722;-82
2023/03/21 00:46:05;;;;;;;11.53;10.53;;;8.70;64.70;;;;;;6262004;28;20242;-80
2023/03/21 00:49:09;;;;;;;11.70;10.53;;;8.70;64.70;;;;;;6262178;28;20244;-80
2023/03/21 00:52:12;;;;;;;11.93;10.93;;;8.80;64.60;;;;;;6261368;28;20348;-80
2023/03/21 00:55:33;;;;;;;11.17;10.33;;;8.70;64.60;;;;;;6261053;28;20234;-80
2023/03/21 00:58:36;;;;;;;12.80;11.80;;;8.70;64.70;;;;;;6279913;28;20240;-80
2023/03/21 01:01:39;;;;;;;13.77;12.20;;;8.60;64.90;;;;;;6259131;28;20615;-81
2023/03/21 01:04:43;;;;;;;13.37;12.27;;;8.60;65.10;;;;;;6248592;28;20340;-81
2023/03/21 01:07:46;;;;;;;13.70;12.30;;;8.70;65.10;;;;;;6256775;28;20724;-79
2023/03/21 01:10:51;;;;;;;14.10;12.70;;;8.60;65.50;;;;;;6261353;28;20262;-79
2023/03/21 01:13:55;;;;;;;15.53;13.30;;;8.60;65.70;;;;;;6254041;28;20230;-80
2023/03/21 01:17:16;;;;;;;13.63;12.43;;;8.60;65.30;;;;;;6259917;28;20652;-79
2023/03/21 01:20:24;;;;;;;14.57;13.43;;;8.60;65.30;;;;;;6246399;28;20239;-81
2023/03/21 01:23:30;;;;;;;17.10;15.30;;;8.60;66.10;;;;;;6249795;28;20308;-81
2023/03/21 01:26:33;;;;;;;16.20;14.90;;;8.60;66.10;;;;;;6252158;28;20234;-82
2023/03/21 01:29:36;;;;;;;18.37;16.67;;;8.60;66.00;;;;;;6267938;28;20325;-81
2023/03/21 01:32:39;;;;;;;18.57;16.77;;;8.60;66.10;;;;;;6260255;28;20242;-81
2023/03/21 01:35:44;;;;;;;19.47;17.03;;;8.60;66.10;;;;;;6261515;28;20254;-80
2023/03/21 01:38:59;;;;;;;19.57;17.17;;;8.50;66.20;;;;;;6264579;28;20265;-79
2023/03/21 01:42:02;;;;;;;19.73;17.90;;;8.50;66.30;;;;;;6259293;28;20245;-81
2023/03/21 01:45:22;;;;;;;19.53;17.60;;;8.50;66.40;;;;;;6252491;28;20262;-80
2023/03/21 01:48:27;;;;;;;22.73;20.03;;;8.40;66.60;;;;;;6279710;28;20652;-81
2023/03/21 01:51:34;;;;;;;22.97;20.77;;;8.30;66.80;;;;;;6284492;28;20248;-79
2023/03/21 01:54:40;;;;;;;22.97;20.83;;;8.40;66.60;;;;;;6288969;28;21198;-81
2023/03/21 01:57:51;;;;;;;25.43;23.13;;;8.40;66.50;;;;;;6273840;28;20251;-81
2023/03/21 02:01:07;;;;;;;26.03;23.27;;;8.40;66.40;;;;;;6249900;28;20253;-80
2023/03/21 02:04:11;;;;;;;26.43;23.57;;;8.40;66.40;;;;;;6255131;28;20249;-80
2023/03/21 02:07:22;;;;;;;26.80;24.13;;;8.40;66.50;;;;;;6258996;28;20234;-81
2023/03/21 02:10:26;;;;;;;28.43;25.53;;;8.40;66.60;;;;;;6268314;28;20731;-80
2023/03/21 02:13:29;;;;;;;29.77;25.87;;;8.30;66.60;;;;;;6261249;28;20654;-81
2023/03/21 02:16:50;;;;;;;30.60;26.63;;;8.30;67.00;;;;;;6261795;28;20249;-80
2023/03/21 02:20:29;;;;;;;28.97;25.90;;;8.30;67.00;;;;;;6276979;28;20700;-80
2023/03/21 02:24:20;;;;;;;33.67;25.93;;;8.20;67.40;;;;;;6270348;28;20234;-81
2023/03/21 02:27:25;;;;;;;28.07;25.10;;;8.30;67.40;;;;;;6158583;28;20241;-81
2023/03/21 02:30:55;;;;;;;30.27;27.03;;;8.20;67.50;;;;;;6170418;28;20236;-80
2023/03/21 02:34:36;;;;;;;31.87;28.57;;;8.20;67.60;;;;;;6256215;28;20698;-80
2023/03/21 02:37:42;;;;;;;31.47;28.07;;;8.10;68.00;;;;;;6251602;28;20734;-81
2023/03/21 02:41:03;;;;;;;32.70;28.00;;;8.10;68.20;;;;;;6260257;28;20315;-81
2023/03/21 02:44:23;;;;;;;30.80;26.73;;;8.20;68.20;;;;;;6264057;28;20239;-80
2023/03/21 02:47:33;;;;;;;33.20;28.70;;;8.10;68.40;;;;;;6253394;28;20382;-79
2023/03/21 02:50:42;;;;;;;30.90;26.53;;;8.10;68.30;;;;;;6257029;28;20238;-81
2023/03/21 02:53:52;;;;;;;32.47;28.97;;;8.10;68.40;;;;;;6264022;28;20257;-80
2023/03/21 02:57:17;;;;;;;31.33;27.90;;;8.00;68.70;;;;;;6266138;28;20238;-81
2023/03/21 03:00:23;;;;;;;30.23;27.03;;;8.00;68.70;;;;;;6264916;28;20723;-80
2023/03/21 03:03:27;;;;;;;32.93;28.10;;;8.00;68.80;;;;;;6267683;28;20233;-81
2023/03/21 03:06:45;;;;;;;35.90;28.00;;;8.00;69.00;;;;;;6254615;28;20493;-82
2023/03/21 03:10:12;;;;;;;30.83;25.87;;;8.00;69.30;;;;;;6254880;28;20756;-83
2023/03/21 03:13:31;;;;;;;32.23;28.63;;;8.00;69.40;;;;;;6247065;28;20227;-81
2023/03/21 03:16:44;;;;;;;30.67;27.50;;;8.00;69.40;;;;;;6279906;28;20705;-81
2023/03/21 03:20:01;;;;;;;31.63;26.17;;;7.90;69.60;;;;;;6235507;28;20372;-81
2023/03/21 03:23:28;;;;;;;31.37;26.93;;;7.90;69.70;;;;;;6260582;28;20631;-80
2023/03/21 03:26:36;;;;;;;31.17;27.10;;;7.90;69.80;;;;;;6234208;28;20776;-81
2023/03/21 03:29:42;;;;;;;31.60;28.17;;;7.80;70.40;;;;;;6242992;28;20231;-81
2023/03/21 03:32:51;;;;;;;34.33;29.07;;;7.80;70.80;;;;;;6261109;28;20796;-81
2023/03/21 03:35:56;;;;;;;32.73;28.20;;;7.80;71.00;;;;;;6255918;28;20226;-82
2023/03/21 03:39:10;;;;;;;32.83;28.33;;;7.80;71.20;;;;;;6279280;28;20230;-79
2023/03/21 03:42:18;;;;;;;34.07;27.13;;;7.70;71.50;;;;;;6284205;28;20253;-80
2023/03/21 03:45:35;;;;;;;33.43;28.87;;;7.60;71.70;;;;;;6287641;28;20396;-81
2023/03/21 03:48:45;;;;;;;36.87;29.13;;;7.60;71.50;;;;;;6265400;28;20238;-81
2023/03/21 03:51:53;;;;;;;39.23;29.50;;;7.60;71.90;;;;;;6280913;28;20233;-81
2023/03/21 03:54:56;;;;;;;33.67;28.90;;;7.60;72.20;;;;;;6273614;28;20226;-79
2023/03/21 03:58:01;;;;;;;37.80;30.37;;;7.60;72.60;;;;;;6271718;28;20244;-80
2023/03/21 04:01:08;;;;;;;33.57;27.97;;;7.60;72.70;;;;;;6286278;28;20260;-80
2023/03/21 04:04:12;;;;;;;38.47;28.37;;;7.60;72.70;;;;;;6306609;28;20304;-80
2023/03/21 04:07:16;;;;;;;33.47;27.60;;;7.70;72.60;;;;;;6301385;28;20232;-79
2023/03/21 04:10:20;;;;;;;33.13;27.37;;;7.60;72.60;;;;;;6280895;28;20256;-79
2023/03/21 04:13:25;;;;;;;34.50;28.07;;;7.60;72.70;;;;;;6284323;28;20273;-81
2023/03/21 04:16:30;;;;;;;32.37;28.87;;;7.80;72.50;;;;;;6271877;28;20234;-79
2023/03/21 04:19:35;;;;;;;32.77;27.57;;;7.70;72.50;;;;;;6251171;28;20309;-79
2023/03/21 04:22:38;;;;;;;32.93;27.90;;;7.80;72.60;;;;;;6245440;28;20231;-82
2023/03/21 04:25:41;;;;;;;34.90;26.90;;;7.70;72.50;;;;;;6255927;28;20642;-82
2023/03/21 04:29:00;;;;;;;33.20;27.40;;;7.70;72.40;;;;;;6257666;28;20297;-80
2023/03/21 04:32:03;;;;;;;31.60;27.20;;;7.80;72.40;;;;;;6244923;28;20252;-79
2023/03/21 04:35:08;;;;;;;33.67;26.17;;;7.70;72.40;;;;;;6256384;28;20305;-79
2023/03/21 04:38:12;;;;;;;36.37;27.13;;;7.70;72.30;;;;;;6265172;28;20294;-84
2023/03/21 04:41:36;;;;;;;33.93;27.90;;;7.60;72.60;;;;;;6269618;28;20229;-84
2023/03/21 04:44:42;;;;;;;32.17;24.97;;;7.60;72.70;;;;;;6249332;28;20243;-86
2023/03/21 04:47:48;;;;;;;33.70;27.43;;;7.60;72.90;;;;;;6286190;28;20231;-85
2023/03/21 04:50:52;;;;;;;30.13;26.53;;;7.60;72.90;;;;;;6254591;28;20253;-84
2023/03/21 04:53:58;;;;;;;36.27;26.70;;;7.60;72.80;;;;;;6269072;28;20265;-86
2023/03/21 04:57:01;;;;;;;32.27;26.13;;;7.60;72.90;;;;;;6249245;28;20294;-81
2023/03/21 05:00:13;;;;;;;33.77;26.47;;;7.60;72.90;;;;;;6264485;28;20242;-82
2023/03/21 05:03:22;;;;;;;34.13;26.80;;;7.50;73.00;;;;;;6248916;28;20277;-83
2023/03/21 05:06:28;;;;;;;30.23;25.83;;;7.50;73.20;;;;;;6247844;28;20750;-83
2023/03/21 05:09:39;;;;;;;28.97;25.87;;;7.50;73.30;;;;;;6212399;28;20242;-82
2023/03/21 05:12:43;;;;;;;33.90;27.00;;;7.50;73.30;;;;;;6261842;28;20432;-84
2023/03/21 05:15:51;;;;;;;32.23;26.50;;;7.60;73.10;;;;;;6264254;28;20325;-84
2023/03/21 05:18:57;;;;;;;36.73;30.00;;;7.60;73.20;;;;;;6279988;28;20240;-83
2023/03/21 05:22:07;;;;;;;38.47;26.33;;;7.60;73.20;;;;;;6275991;28;20245;-84
2023/03/21 05:25:11;;;;;;;31.57;24.50;;;7.60;73.20;;;;;;6252768;28;20381;-84
2023/03/21 05:28:17;;;;;;;31.40;25.57;;;7.70;73.40;;;;;;6251505;28;20400;-83
2023/03/21 05:31:23;;;;;;;32.70;25.90;;;7.70;73.60;;;;;;6258374;28;20248;-83
2023/03/21 05:34:30;;;;;;;32.10;27.33;;;7.70;73.80;;;;;;6242475;28;20245;-82
2023/03/21 05:37:34;;;;;;;31.20;25.63;;;7.60;74.30;;;;;;6266161;28;20233;-84
2023/03/21 05:40:40;;;;;;;40.27;27.60;;;7.60;74.60;;;;;;6236738;28;20246;-84
2023/03/21 05:43:44;;;;;;;35.13;27.23;;;7.50;74.70;;;;;;6253467;28;20341;-83
2023/03/21 05:46:48;;;;;;;36.20;27.40;;;7.60;74.60;;;;;;6264073;28;20323;-83
2023/03/21 05:49:51;;;;;;;35.67;27.03;;;7.60;74.80;;;;;;6280933;28;20241;-82
2023/03/21 05:52:55;;;;;;;32.33;26.53;;;7.60;74.80;;;;;;6277977;28;20240;-83
2023/03/21 05:55:59;;;;;;;34.53;26.77;;;7.60;75.00;;;;;;6284112;28;20240;-82
2023/03/21 05:59:02;;;;;;;38.83;27.77;;;7.70;74.90;;;;;;6281179;28;20234;-83
2023/03/21 06:02:07;;;;;;;37.20;27.83;;;7.80;74.80;;;;;;6266912;28;20344;-84
2023/03/21 06:05:11;;;;;;;36.30;28.20;;;7.60;75.00;;;;;;6277256;28;20234;-82
2023/03/21 06:08:15;;;;;;;34.60;27.87;;;7.70;75.00;;;;;;6225869;28;20325;-83
2023/03/21 06:11:34;;;;;;;38.60;27.77;;;7.70;75.10;;;;;;6241778;28;20238;-82
2023/03/21 06:14:40;;;;;;;35.93;28.47;;;7.80;74.70;;;;;;6244637;28;20294;-82
2023/03/21 06:17:45;;;;;;;35.13;26.83;;;7.90;74.30;;;;;;6263310;28;20248;-83
2023/03/21 06:20:49;;;;;;;37.63;27.50;;;7.80;74.60;;;;;;6262090;28;20614;-81
2023/03/21 06:23:53;;;;;;;34.67;27.67;;;7.90;74.60;;;;;;6258684;28;20469;-79
2023/03/21 06:26:56;;;;;;;35.87;27.77;;;7.90;74.50;;;;;;6237678;28;20246;-83
2023/03/21 06:29:59;;;;;;;33.43;26.43;;;7.90;74.40;;;;;;6280260;28;20241;-85
2023/03/21 06:33:04;;;;;;;30.97;25.90;;;7.90;74.60;;;;;;6288649;28;20326;-83
2023/03/21 06:36:08;;;;;;;39.20;28.77;;;8.00;74.30;;;;;;6272050;28;20282;-83
2023/03/21 06:39:12;;;;;;;37.67;29.33;;;8.00;74.40;;;;;;6270454;28;20233;-83
2023/03/21 06:42:15;;;;;;;35.43;26.43;;;7.90;74.70;;;;;;6272050;28;20766;-83
2023/03/21 06:45:19;;;;;;;32.00;26.10;;;8.00;74.70;;;;;;6263073;28;20226;-84
2023/03/21 06:48:24;;;;;;;34.93;28.50;;;8.00;74.60;;;;;;6249351;28;20238;-83
2023/03/21 06:51:28;;;;;;;29.60;25.07;;;7.90;74.60;;;;;;6263031;28;20721;-83
2023/03/21 06:54:31;;;;;;;40.17;28.40;;;8.00;74.90;;;;;;6257034;28;20315;-83
2023/03/21 06:57:34;;;;;;;40.63;28.80;;;8.00;74.70;;;;;;6277976;28;20233;-83
2023/03/21 07:00:37;;;;;;;35.70;26.83;;;8.00;74.70;;;;;;6258599;28;20245;-83
2023/03/21 07:03:42;;;;;;;35.10;26.67;;;8.00;74.50;;;;;;6261949;28;20853;-83
2023/03/21 07:06:46;;;;;;;41.77;29.93;;;8.10;74.40;;;;;;6250792;28;20247;-83
2023/03/21 07:09:49;;;;;;;39.40;28.33;;;8.00;74.60;;;;;;6246549;28;20243;-82
2023/03/21 07:12:52;;;;;;;40.40;29.07;;;7.80;75.40;;;;;;6262368;28;20245;-82
2023/03/21 07:15:56;;;;;;;36.80;27.33;;;7.80;75.80;;;;;;6267331;28;20237;-81
2023/03/21 07:19:01;;;;;;;44.63;31.57;;;7.90;75.80;;;;;;6262539;28;20233;-84
2023/03/21 07:22:04;;;;;;;44.80;32.33;;;7.80;76.10;;;;;;6259383;28;20254;-84
2023/03/21 07:25:09;;;;;;;41.50;31.33;;;7.70;76.60;;;;;;6271442;28;20263;-82
2023/03/21 07:28:12;;;;;;;46.23;32.20;;;7.70;76.90;;;;;;6269812;28;21009;-83
2023/03/21 07:31:18;;;;;;;45.80;31.60;;;7.70;77.10;;;;;;6285256;28;20236;-84
2023/03/21 07:34:23;;;;;;;43.93;31.03;;;7.80;77.10;;;;;;6276690;28;20226;-82
2023/03/21 07:37:26;;;;;;;45.60;33.07;;;7.90;77.00;;;;;;6280259;28;20320;-84
2023/03/21 07:40:29;;;;;;;45.27;31.97;;;8.00;76.80;;;;;;6281496;28;20330;-84
2023/03/21 07:43:33;;;;;;;45.53;31.20;;;7.90;76.70;;;;;;6279295;28;20312;-83
2023/03/21 07:46:41;;;;;;;41.13;31.07;;;7.90;77.10;;;;;;6279530;28;20271;-83
2023/03/21 07:49:46;;;;;;;41.33;31.47;;;8.00;76.90;;;;;;6276111;28;20313;-83
2023/03/21 07:52:49;;;;;;;42.83;30.97;;;8.00;76.70;;;;;;6262744;28;20267;-83
2023/03/21 07:55:55;;;;;;;42.83;30.57;;;8.00;76.80;;;;;;6279562;28;20243;-85
2023/03/21 07:58:59;;;;;;;43.23;31.37;;;8.00;76.90;;;;;;6249004;28;20249;-84
2023/03/21 08:02:02;;;;;;;44.37;32.07;;;8.10;77.00;;;;;;6261234;28;20245;-83
2023/03/21 08:05:10;;;;;;;41.40;30.83;;;8.20;76.80;;;;;;6249282;28;20261;-84
2023/03/21 08:08:14;;;;;;;40.93;29.50;;;8.20;76.60;;;;;;6262016;28;20769;-87
2023/03/21 08:11:20;;;;;;;41.10;30.03;;;8.20;76.50;;;;;;6284965;28;20218;-86
2023/03/21 08:14:23;;;;;;;40.90;30.80;;;8.30;76.30;;;;;;6280916;28;20213;-84
2023/03/21 08:17:27;;;;;;;41.90;30.10;;;8.30;76.40;;;;;;6287842;28;20245;-85
2023/03/21 08:20:35;;;;;;;38.57;30.00;;;8.20;76.60;;;;;;6287104;28;20242;-84
2023/03/21 08:23:40;;;;;;;48.97;34.40;;;8.30;76.50;;;;;;6271718;28;20231;-84
2023/03/21 08:26:44;;;;;;;40.03;29.67;;;8.40;76.40;;;;;;6286737;28;20253;-84
2023/03/21 08:29:48;;;;;;;38.20;29.30;;;8.50;76.20;;;;;;6285401;28;20226;-84
2023/03/21 08:32:51;;;;;;;38.43;29.20;;;8.50;76.10;;;;;;6281078;28;20222;-85
2023/03/21 08:35:59;;;;;;;35.10;27.20;;;8.60;76.20;;;;;;6290814;28;20589;-85
2023/03/21 08:39:04;;;;;;;39.10;29.50;;;8.60;76.00;;;;;;6282334;28;20225;-82
2023/03/21 08:42:11;;;;;;;37.50;28.50;;;8.60;76.10;;;;;;6293732;28;20822;-83
2023/03/21 08:45:17;;;;;;;43.30;30.83;;;8.60;76.80;;;;;;6296330;28;20222;-84
2023/03/21 08:48:20;;;;;;;41.23;28.33;;;8.60;77.10;;;;;;6294722;28;20230;-84
2023/03/21 08:51:25;;;;;;;39.80;29.00;;;8.60;77.10;;;;;;6300957;28;20216;-84
2023/03/21 08:54:28;;;;;;;37.30;27.80;;;8.80;77.10;;;;;;6302390;28;20227;-82
2023/03/21 08:57:32;;;;;;;31.13;26.17;;;9.00;77.10;;;;;;6297290;28;20232;-83
2023/03/21 09:00:35;;;;;;;39.40;29.00;;;9.00;76.60;;;;;;6291762;28;20345;-84
2023/03/21 09:03:38;;;;;;;33.63;26.90;;;8.90;76.70;;;;;;6306105;28;20289;-82
2023/03/21 09:06:44;;;;;;;33.37;27.57;;;9.00;76.60;;;;;;6323684;28;20259;-83
2023/03/21 09:09:53;;;;;;;31.50;25.67;;;8.90;76.80;;;;;;6313871;28;20241;-82
2023/03/21 09:13:16;;;;;;;32.03;27.07;;;8.90;77.00;;;;;;6290577;28;20214;-83
2023/03/21 09:16:19;;;;;;;37.50;26.20;;;8.90;77.20;;;;;;6299054;28;20232;-82
2023/03/21 09:19:23;;;;;;;33.30;26.03;;;9.00;77.00;;;;;;6291076;28;20248;-83
2023/03/21 09:22:27;;;;;;;31.33;24.67;;;9.00;76.90;;;;;;6292084;28;20242;-84
2023/03/21 09:25:31;;;;;;;29.07;22.43;;;9.10;76.90;;;;;;6274658;28;20245;-83
2023/03/21 09:28:35;;;;;;;31.03;24.33;;;9.20;76.50;;;;;;6282644;28;20246;-83
2023/03/21 09:31:38;;;;;;;33.57;25.40;;;9.20;76.40;;;;;;6279851;28;20315;-85
2023/03/21 09:34:42;;;;;;;30.10;23.63;;;9.00;76.90;;;;;;6256701;28;20242;-82
2023/03/21 09:37:48;;;;;;;29.27;24.10;;;9.20;76.20;;;;;;6266491;28;20259;-85
2023/03/21 09:41:05;;;;;;;29.00;22.93;;;9.30;76.00;;;;;;6261081;28;20323;-83
2023/03/21 09:44:23;;;;;;;28.50;24.27;;;9.40;76.20;;;;;;6258868;28;20257;-83
2023/03/21 09:47:31;;;;;;;30.10;22.27;;;9.50;76.00;;;;;;6280863;28;20233;-83
2023/03/21 09:50:37;;;;;;;27.83;22.73;;;9.50;75.50;;;;;;6266408;28;20245;-82
2023/03/21 09:53:44;;;;;;;32.57;24.53;;;9.60;75.50;;;;;;6265581;28;20238;-83
2023/03/21 09:56:51;;;;;;;31.87;23.87;;;9.80;75.10;;;;;;6266821;28;20238;-84
2023/03/21 09:59:56;;;;;;;31.70;24.43;;;9.70;74.80;;;;;;6266594;28;20261;-82
2023/03/21 10:03:05;;;;;;;28.07;23.10;;;9.50;75.00;;;;;;6259991;28;20249;-83
2023/03/21 10:06:15;;;;;;;28.40;23.20;;;9.60;75.20;;;;;;6260751;28;20241;-84
2023/03/21 10:09:23;;;;;;;27.73;22.90;;;9.70;74.50;;;;;;6272657;28;20284;-84
2023/03/21 10:12:30;;;;;;;26.87;22.20;;;10.00;74.50;;;;;;6264917;28;20226;-83
2023/03/21 10:15:36;;;;;;;26.83;22.93;;;10.00;73.90;;;;;;6272938;28;20234;-83
2023/03/21 10:19:11;;;;;;;28.60;23.40;;;10.00;74.10;;;;;;6247560;28;20722;-83
2023/03/21 10:22:19;;;;;;;26.23;22.67;;;10.20;73.80;;;;;;6246193;28;20343;-85
2023/03/21 10:25:37;;;;;;;29.17;22.63;;;10.20;73.40;;;;;;6262762;28;20227;-83
2023/03/21 10:28:43;;;;;;;31.97;22.57;;;10.40;72.80;;;;;;6266599;28;20688;-85
2023/03/21 10:31:56;;;;;;;28.57;22.87;;;10.40;72.50;;;;;;6258864;28;20240;-84
2023/03/21 10:35:06;;;;;;;29.70;23.67;;;10.40;72.20;;;;;;6256114;28;20260;-84
2023/03/21 10:38:19;;;;;;;25.97;22.47;;;10.40;72.50;;;;;;6212296;28;20771;-84
2023/03/21 10:41:46;;;;;;;27.03;23.60;;;10.30;72.20;;;;;;6269956;28;20239;-83
2023/03/21 10:44:58;;;;;;;29.97;23.67;;;10.40;72.00;;;;;;6244944;28;20329;-86
2023/03/21 10:48:08;;;;;;;29.10;24.10;;;10.60;71.60;;;;;;6266305;28;20245;-83
2023/03/21 10:51:17;;;;;;;28.87;23.07;;;10.60;71.50;;;;;;6264475;28;20257;-86
2023/03/21 10:54:26;;;;;;;27.67;22.80;;;10.60;71.50;;;;;;6250202;28;20230;-84
2023/03/21 10:57:31;;;;;;;26.37;21.30;;;10.50;71.50;;;;;;6266508;28;20230;-84
2023/03/21 11:00:40;;;;;;;26.63;21.13;;;10.40;71.80;;;;;;6259432;28;20350;-84
2023/03/21 11:03:45;;;;;;;27.67;21.10;;;10.30;71.50;;;;;;6250998;28;20348;-84
2023/03/21 11:06:55;;;;;;;26.20;22.40;;;10.40;71.70;;;;;;6239307;28;20236;-83
2023/03/21 11:10:02;;;;;;;29.17;21.80;;;10.10;72.00;;;;;;6243018;28;20246;-82
2023/03/21 11:13:16;;;;;;;24.70;20.93;;;10.20;72.20;;;;;;6271154;28;20240;-83
2023/03/21 11:19:49;;;;;;;26.67;21.73;;;10.40;71.30;;;;;;6262778;28;20238;-85
2023/03/21 11:22:56;;;;;;;25.30;20.87;;;10.40;71.60;;;;;;6241823;28;20292;-83
2023/03/21 11:26:02;;;;;;;25.27;21.10;;;10.50;71.60;;;;;;6273505;28;20242;-84
2023/03/21 11:29:24;;;;;;;22.97;20.47;;;10.60;71.40;;;;;;6255636;28;20256;-83
2023/03/21 11:32:37;;;;;;;27.00;21.07;;;10.70;70.70;;;;;;6281366;28;20730;-84
2023/03/21 11:35:59;;;;;;;24.13;21.07;;;10.70;71.10;;;;;;6269593;28;20271;-84
2023/03/21 11:39:15;;;;;;;27.97;20.63;;;10.50;71.20;;;;;;6308853;28;20283;-83
2023/03/21 11:42:55;;;;;;;20.90;18.40;;;10.70;71.10;;;;;;6276392;28;20230;-85
2023/03/21 11:46:26;;;;;;;29.13;22.80;;;10.70;71.20;;;;;;6256033;28;20296;-82
2023/03/21 11:49:44;;;;;;;26.27;20.33;;;10.80;70.90;;;;;;6242060;28;20286;-84
2023/03/21 11:53:54;;;;;;;24.93;22.17;;;10.90;70.60;;;;;;6247689;28;20283;-84
2023/03/21 11:57:23;;;;;;;22.97;20.13;;;11.00;70.40;;;;;;6211194;28;20642;-85
2023/03/21 12:00:36;;;;;;;25.90;21.37;;;11.00;70.20;;;;;;6245481;28;20244;-85
2023/03/21 12:04:11;;;;;;;26.10;20.50;;;11.10;70.40;;;;;;6253836;28;20237;-83
2023/03/21 12:07:35;;;;;;;24.47;21.30;;;11.20;69.80;;;;;;6264199;28;20230;-83
2023/03/21 12:10:46;;;;;;;24.67;20.17;;;11.30;70.00;;;;;;6262593;28;20245;-84
2023/03/21 12:17:52;;;;;;;22.10;19.43;;;11.70;68.70;;;;;;6253440;28;20524;-84
2023/03/21 12:21:01;;;;;;;21.73;19.23;;;11.50;68.70;;;;;;6268527;28;20244;-83
2023/03/21 12:24:12;;;;;;;22.13;18.43;;;11.70;68.40;;;;;;6278837;28;20237;-84
2023/03/21 12:27:33;;;;;;;21.87;19.03;;;11.70;68.60;;;;;;6235354;28;20296;-85
2023/03/21 12:30:54;;;;;;;20.23;18.17;;;11.70;68.70;;;;;;6263550;28;20681;-84
2023/03/21 12:34:12;;;;;;;20.30;18.13;;;11.70;68.60;;;;;;6258642;28;20234;-83
2023/03/21 12:37:29;;;;;;;22.13;18.83;;;11.70;68.50;;;;;;6285130;28;20740;-85
2023/03/21 12:40:56;;;;;;;21.23;18.93;;;11.70;68.20;;;;;;6249201;28;20234;-83
2023/03/21 12:44:04;;;;;;;22.10;19.07;;;11.70;68.40;;;;;;6268302;28;20238;-85
2023/03/21 12:47:14;;;;;;;20.07;17.40;;;11.70;69.00;;;;;;6257699;28;20882;-85
2023/03/21 12:50:26;;;;;;;17.83;16.03;;;11.80;68.50;;;;;;6245985;28;20246;-83
2023/03/21 12:54:13;;;;;;;22.13;17.93;;;11.90;68.60;;;;;;6244942;28;20256;-84
2023/03/21 12:57:28;;;;;;;19.67;17.30;;;11.70;69.00;;;;;;6255603;28;20313;-85
2023/03/21 13:00:38;;;;;;;19.57;17.57;;;11.70;69.00;;;;;;6237234;28;20287;-84
2023/03/21 13:03:49;;;;;;;19.27;17.27;;;11.90;68.30;;;;;;6257205;28;20234;-84
2023/03/21 13:06:58;;;;;;;20.80;17.40;;;11.90;68.20;;;;;;6261631;28;20232;-83
2023/03/21 13:10:23;;;;;;;19.10;17.10;;;11.70;68.60;;;;;;6238888;28;20238;-84
2023/03/21 13:13:42;;;;;;;18.13;16.23;;;11.70;68.50;;;;;;6236769;28;20258;-85
2023/03/21 13:16:49;;;;;;;19.37;17.27;;;11.70;68.60;;;;;;6257030;28;20251;-84
2023/03/21 13:20:03;;;;;;;19.53;17.53;;;11.90;68.40;;;;;;6254493;28;20261;-85
2023/03/21 13:26:38;;;;;;;19.60;17.60;;;12.10;67.90;;;;;;6268407;28;20304;-83
2023/03/21 13:29:52;;;;;;;19.63;16.90;;;11.90;68.30;;;;;;6295695;28;20241;-84
2023/03/21 13:33:06;;;;;;;17.10;15.50;;;11.80;68.70;;;;;;6282331;28;20648;-86
2023/03/21 13:36:15;;;;;;;17.43;15.73;;;11.70;68.80;;;;;;6261500;28;20239;-83
2023/03/21 13:39:20;;;;;;;15.57;13.77;;;11.70;68.80;;;;;;6256341;28;20230;-83
2023/03/21 13:42:33;;;;;;;16.77;15.07;;;11.70;68.90;;;;;;6264112;28;20284;-83
2023/03/21 13:45:48;;;;;;;15.80;14.20;;;11.70;68.30;;;;;;6260904;28;20718;-81
2023/03/21 13:48:56;;;;;;;13.53;12.33;;;11.70;68.30;;;;;;6258090;28;20360;-84
2023/03/21 13:52:21;;;;;;;16.60;14.93;;;11.70;68.40;;;;;;6263057;28;20247;-83
2023/03/21 13:55:29;;;;;;;14.23;12.93;;;11.70;68.50;;;;;;6270178;28;20254;-83
2023/03/21 13:58:38;;;;;;;15.70;14.17;;;11.70;68.40;;;;;;6266342;28;20221;-85
2023/03/21 14:01:58;;;;;;;15.77;13.77;;;11.70;68.70;;;;;;6267629;28;20242;-82
2023/03/21 14:05:03;;;;;;;16.70;14.10;;;11.80;68.30;;;;;;6270347;28;20368;-84
2023/03/21 14:08:15;;;;;;;14.50;13.17;;;11.90;68.40;;;;;;6264832;28;20234;-84
2023/03/21 14:11:32;;;;;;;13.50;12.20;;;11.80;68.40;;;;;;6262715;28;20729;-85
2023/03/21 14:14:41;;;;;;;14.67;13.30;;;11.90;68.50;;;;;;6281447;28;20226;-84
2023/03/21 14:17:50;;;;;;;14.73;13.27;;;11.90;68.60;;;;;;6258141;28;20238;-85
2023/03/21 14:20:57;;;;;;;14.77;13.43;;;11.90;69.50;;;;;;6272992;28;20286;-83
2023/03/21 14:24:02;;;;;;;14.73;13.37;;;11.90;70.00;;;;;;6298329;28;20242;-84
2023/03/21 14:27:06;;;;;;;14.73;13.37;;;11.70;70.50;;;;;;6296096;28;20237;-83
2023/03/21 14:30:21;;;;;;;14.13;12.80;;;11.70;70.40;;;;;;6320319;28;20353;-85
2023/03/21 14:33:28;;;;;;;12.97;11.87;;;11.60;70.70;;;;;;6288377;28;20222;-84
2023/03/21 14:36:38;;;;;;;14.03;12.73;;;11.70;70.60;;;;;;6293362;28;20244;-84
2023/03/21 14:39:57;;;;;;;13.40;12.37;;;11.80;70.20;;;;;;6318508;28;20237;-84
2023/03/21 14:43:05;;;;;;;13.33;12.10;;;11.80;69.90;;;;;;6318694;28;20236;-84
2023/03/21 14:46:13;;;;;;;15.27;13.77;;;11.70;70.10;;;;;;6289789;28;20222;-83
2023/03/21 14:49:27;;;;;;;14.03;12.53;;;11.80;70.00;;;;;;6296464;28;20237;-85
2023/03/21 14:52:33;;;;;;;14.13;13.03;;;12.00;69.70;;;;;;6291172;28;20238;-83
2023/03/21 14:55:42;;;;;;;13.80;12.50;;;12.00;69.30;;;;;;6284645;28;20363;-85
2023/03/21 14:58:47;;;;;;;13.50;12.30;;;12.10;69.10;;;;;;6284686;28;20229;-84
2023/03/21 15:01:54;;;;;;;11.33;10.33;;;12.00;69.30;;;;;;6281714;28;20234;-85
2023/03/21 15:05:14;;;;;;;12.90;11.63;;;12.20;69.20;;;;;;6294387;28;20241;-83
2023/03/21 15:08:19;;;;;;;12.57;11.37;;;12.50;68.70;;;;;;6263857;28;20750;-84
2023/03/21 15:11:31;;;;;;;13.73;12.30;;;12.50;68.00;;;;;;6260195;28;20245;-84
2023/03/21 15:14:36;;;;;;;13.03;11.73;;;12.50;67.90;;;;;;6295568;28;20830;-85
2023/03/21 15:17:41;;;;;;;13.23;11.87;;;12.50;68.00;;;;;;6280902;28;20237;-85
2023/03/21 15:20:48;;;;;;;11.80;10.90;;;12.50;67.60;;;;;;6321316;28;20236;-83
2023/03/21 15:23:56;;;;;;;12.47;11.13;;;12.50;67.80;;;;;;6295959;28;20237;-85
2023/03/21 15:27:03;;;;;;;12.13;10.93;;;12.50;68.00;;;;;;6294353;28;20226;-82
2023/03/21 15:30:08;;;;;;;13.37;12.17;;;12.30;68.50;;;;;;6293853;28;20226;-85
2023/03/21 15:33:20;;;;;;;12.73;11.63;;;12.40;68.40;;;;;;6273913;28;20241;-85
2023/03/21 15:36:27;;;;;;;12.60;11.30;;;12.30;68.60;;;;;;6255622;28;20377;-86
2023/03/21 15:39:34;;;;;;;10.83;9.90;;;12.40;68.60;;;;;;6268025;28;20321;-83
2023/03/21 15:42:39;;;;;;;12.00;10.90;;;12.40;68.50;;;;;;6256048;28;20238;-86
2023/03/21 15:45:48;;;;;;;11.67;10.77;;;12.20;68.70;;;;;;6266733;28;20266;-84
2023/03/21 15:49:08;;;;;;;12.70;11.40;;;12.20;68.70;;;;;;6258551;28;20309;-85
2023/03/21 15:52:13;;;;;;;11.53;10.63;;;12.10;68.80;;;;;;6255445;28;20242;-84
2023/03/21 15:55:25;;;;;;;13.27;11.97;;;12.20;68.90;;;;;;6268033;28;20240;-83
2023/03/21 15:58:34;;;;;;;14.03;12.63;;;12.10;69.10;;;;;;6276298;28;20315;-85
2023/03/21 16:01:38;;;;;;;14.03;12.70;;;12.00;69.30;;;;;;6288341;28;21141;-84
2023/03/21 16:04:59;;;;;;;16.67;14.53;;;12.00;69.30;;;;;;6297695;28;20645;-84
2023/03/21 16:08:06;;;;;;;14.80;13.30;;;12.00;69.40;;;;;;6262049;28;20238;-84
2023/03/21 16:11:17;;;;;;;13.57;12.17;;;12.00;69.50;;;;;;6267640;28;20532;-85
2023/03/21 16:14:22;;;;;;;15.37;13.67;;;11.90;69.60;;;;;;6261348;28;20312;-84
2023/03/21 16:17:32;;;;;;;18.53;14.17;;;11.90;69.60;;;;;;6264682;28;20234;-84
2023/03/21 16:20:41;;;;;;;16.57;15.07;;;11.90;69.70;;;;;;6264702;28;20777;-84